sensor_id;sensor_type;location;lat;lon;timestamp;temperature;humidity
41838;DHT22;27511;52.042;5.178;2023-04-24T00:01:37;12.60;99.90
41838;DHT22;27511;52.042;5.178;2023-04-24T00:04:05;12.60;99.90
41838;DHT22;27511;52.042;5.178;2023-04-24T00:06:31;12.50;99.90
41838;DHT22;27511;52.042;5.178;2023-04-24T00:09:00;12.50;99.90
41838;DHT22;27511;52.042;5.178;2023-04-24T00:11:26;12.70;99.90
41838;DHT22;27511;52.042;5.178;2023-04-24T00:13:52;12.80;99.90
41838;DHT22;27511;52.042;5.178;2023-04-24T00:16:20;12.70;99.90
41838;DHT22;27511;52.042;5.178;2023-04-24T00:18:45;12.70;99.90
41838;DHT22;27511;52.042;5.178;2023-04-24T00:21:13;12.60;99.90
41838;DHT22;27511;52.042;5.178;2023-04-24T00:23:38;12.50;99.90
41838;DHT22;27511;52.042;5.178;2023-04-24T00:26:04;12.50;99.90
41838;DHT22;27511;52.042;5.178;2023-04-24T00:28:29;12.50;99.90
41838;DHT22;27511;52.042;5.178;2023-04-24T00:30:55;12.50;99.90
41838;DHT22;27511;52.042;5.178;2023-04-24T00:33:20;12.70;99.90
41838;DHT22;27511;52.042;5.178;2023-04-24T00:35:46;12.70;99.90
41838;DHT22;27511;52.042;5.178;2023-04-24T00:38:11;12.60;99.90
41838;DHT22;27511;52.042;5.178;2023-04-24T00:40:37;12.50;99.90
41838;DHT22;27511;52.042;5.178;2023-04-24T00:43:02;12.60;99.90
41838;DHT22;27511;52.042;5.178;2023-04-24T00:45:28;12.70;99.90
41838;DHT22;27511;52.042;5.178;2023-04-24T00:47:53;12.70;99.90
41838;DHT22;27511;52.042;5.178;2023-04-24T00:50:19;12.60;99.90
41838;DHT22;27511;52.042;5.178;2023-04-24T00:52:46;12.60;99.90
41838;DHT22;27511;52.042;5.178;2023-04-24T00:55:12;12.50;99.90
41838;DHT22;27511;52.042;5.178;2023-04-24T00:57:38;12.70;99.90
41838;DHT22;27511;52.042;5.178;2023-04-24T01:00:04;12.80;99.90
41838;DHT22;27511;52.042;5.178;2023-04-24T01:02:31;12.90;99.90
41838;DHT22;27511;52.042;5.178;2023-04-24T01:05:00;12.90;99.90
41838;DHT22;27511;52.042;5.178;2023-04-24T01:07:29;12.80;99.90
41838;DHT22;27511;52.042;5.178;2023-04-24T01:09:55;12.90;99.90
41838;DHT22;27511;52.042;5.178;2023-04-24T01:12:20;12.90;99.90
41838;DHT22;27511;52.042;5.178;2023-04-24T01:14:46;12.80;99.90
41838;DHT22;27511;52.042;5.178;2023-04-24T01:17:11;12.70;99.90
41838;DHT22;27511;52.042;5.178;2023-04-24T01:19:37;12.60;99.90
41838;DHT22;27511;52.042;5.178;2023-04-24T01:24:29;12.70;99.90
41838;DHT22;27511;52.042;5.178;2023-04-24T01:26:55;12.60;99.90
41838;DHT22;27511;52.042;5.178;2023-04-24T01:29:20;12.70;99.90
41838;DHT22;27511;52.042;5.178;2023-04-24T01:31:46;12.80;99.90
41838;DHT22;27511;52.042;5.178;2023-04-24T01:34:12;12.80;99.90
41838;DHT22;27511;52.042;5.178;2023-04-24T01:36:37;12.80;99.90
41838;DHT22;27511;52.042;5.178;2023-04-24T01:39:04;12.80;99.90
41838;DHT22;27511;52.042;5.178;2023-04-24T01:41:29;12.90;99.90
41838;DHT22;27511;52.042;5.178;2023-04-24T01:43:55;12.90;99.90
41838;DHT22;27511;52.042;5.178;2023-04-24T01:46:21;12.80;99.90
41838;DHT22;27511;52.042;5.178;2023-04-24T01:48:47;12.90;99.90
41838;DHT22;27511;52.042;5.178;2023-04-24T01:51:13;12.90;99.90
41838;DHT22;27511;52.042;5.178;2023-04-24T01:53:38;13.00;99.90
41838;DHT22;27511;52.042;5.178;2023-04-24T01:56:04;12.90;99.90
41838;DHT22;27511;52.042;5.178;2023-04-24T01:58:30;12.70;99.90
41838;DHT22;27511;52.042;5.178;2023-04-24T02:00:56;12.80;99.90
41838;DHT22;27511;52.042;5.178;2023-04-24T02:03:22;13.00;99.90
41838;DHT22;27511;52.042;5.178;2023-04-24T02:05:47;13.20;99.90
41838;DHT22;27511;52.042;5.178;2023-04-24T02:08:13;13.10;99.90
41838;DHT22;27511;52.042;5.178;2023-04-24T02:10:38;13.00;99.90
41838;DHT22;27511;52.042;5.178;2023-04-24T02:13:03;13.10;99.90
41838;DHT22;27511;52.042;5.178;2023-04-24T02:15:29;13.10;99.90
41838;DHT22;27511;52.042;5.178;2023-04-24T02:17:55;13.00;99.90
41838;DHT22;27511;52.042;5.178;2023-04-24T02:20:21;13.10;99.90
41838;DHT22;27511;52.042;5.178;2023-04-24T02:22:46;13.20;99.90
41838;DHT22;27511;52.042;5.178;2023-04-24T02:25:11;13.30;99.90
41838;DHT22;27511;52.042;5.178;2023-04-24T02:27:37;13.10;99.90
41838;DHT22;27511;52.042;5.178;2023-04-24T02:30:02;13.10;99.90
41838;DHT22;27511;52.042;5.178;2023-04-24T02:32:28;13.20;99.90
41838;DHT22;27511;52.042;5.178;2023-04-24T02:34:53;13.20;99.90
41838;DHT22;27511;52.042;5.178;2023-04-24T02:37:19;13.20;99.90
41838;DHT22;27511;52.042;5.178;2023-04-24T02:39:44;13.20;99.90
41838;DHT22;27511;52.042;5.178;2023-04-24T02:42:10;13.30;99.90
41838;DHT22;27511;52.042;5.178;2023-04-24T02:44:35;13.30;99.90
41838;DHT22;27511;52.042;5.178;2023-04-24T02:47:01;13.40;99.90
41838;DHT22;27511;52.042;5.178;2023-04-24T02:49:26;13.20;99.90
41838;DHT22;27511;52.042;5.178;2023-04-24T02:51:55;13.30;99.90
41838;DHT22;27511;52.042;5.178;2023-04-24T02:54:20;13.20;99.90
41838;DHT22;27511;52.042;5.178;2023-04-24T02:56:45;13.00;99.90
41838;DHT22;27511;52.042;5.178;2023-04-24T02:59:11;12.90;99.90
41838;DHT22;27511;52.042;5.178;2023-04-24T03:01:36;13.00;99.90
41838;DHT22;27511;52.042;5.178;2023-04-24T03:04:02;12.90;99.90
41838;DHT22;27511;52.042;5.178;2023-04-24T03:06:28;12.90;99.90
41838;DHT22;27511;52.042;5.178;2023-04-24T03:08:54;12.90;99.90
41838;DHT22;27511;52.042;5.178;2023-04-24T03:11:19;13.10;99.90
41838;DHT22;27511;52.042;5.178;2023-04-24T03:13:45;13.10;99.90
41838;DHT22;27511;52.042;5.178;2023-04-24T03:16:10;13.10;99.90
41838;DHT22;27511;52.042;5.178;2023-04-24T03:18:36;13.10;99.90
41838;DHT22;27511;52.042;5.178;2023-04-24T03:21:01;12.90;99.90
41838;DHT22;27511;52.042;5.178;2023-04-24T03:23:28;12.90;99.90
41838;DHT22;27511;52.042;5.178;2023-04-24T03:25:54;13.00;99.90
41838;DHT22;27511;52.042;5.178;2023-04-24T03:28:23;13.10;99.90
41838;DHT22;27511;52.042;5.178;2023-04-24T03:30:50;13.20;99.90
41838;DHT22;27511;52.042;5.178;2023-04-24T03:33:15;13.10;99.90
41838;DHT22;27511;52.042;5.178;2023-04-24T03:35:41;13.00;99.90
41838;DHT22;27511;52.042;5.178;2023-04-24T03:38:06;13.00;99.90
41838;DHT22;27511;52.042;5.178;2023-04-24T03:40:32;12.90;99.90
41838;DHT22;27511;52.042;5.178;2023-04-24T03:42:58;12.80;99.90
41838;DHT22;27511;52.042;5.178;2023-04-24T03:45:24;12.90;99.90
41838;DHT22;27511;52.042;5.178;2023-04-24T03:47:49;13.00;99.90
41838;DHT22;27511;52.042;5.178;2023-04-24T03:50:15;12.90;99.90
41838;DHT22;27511;52.042;5.178;2023-04-24T03:52:41;13.00;99.90
41838;DHT22;27511;52.042;5.178;2023-04-24T03:55:06;13.00;99.90
41838;DHT22;27511;52.042;5.178;2023-04-24T03:57:32;12.90;99.90
41838;DHT22;27511;52.042;5.178;2023-04-24T03:59:57;12.90;99.90
41838;DHT22;27511;52.042;5.178;2023-04-24T04:02:23;12.90;99.90
41838;DHT22;27511;52.042;5.178;2023-04-24T04:04:48;13.00;99.90
41838;DHT22;27511;52.042;5.178;2023-04-24T04:07:13;13.00;99.90
41838;DHT22;27511;52.042;5.178;2023-04-24T04:09:39;13.10;99.90
41838;DHT22;27511;52.042;5.178;2023-04-24T04:12:04;12.90;99.90
41838;DHT22;27511;52.042;5.178;2023-04-24T04:14:30;13.10;99.90
41838;DHT22;27511;52.042;5.178;2023-04-24T04:16:55;13.10;99.90
41838;DHT22;27511;52.042;5.178;2023-04-24T04:19:21;13.10;99.90
41838;DHT22;27511;52.042;5.178;2023-04-24T04:21:46;13.10;99.90
41838;DHT22;27511;52.042;5.178;2023-04-24T04:24:17;13.10;99.90
41838;DHT22;27511;52.042;5.178;2023-04-24T04:26:42;13.20;99.90
41838;DHT22;27511;52.042;5.178;2023-04-24T04:29:11;13.10;99.90
41838;DHT22;27511;52.042;5.178;2023-04-24T04:31:37;12.90;99.90
41838;DHT22;27511;52.042;5.178;2023-04-24T04:34:02;12.80;99.90
41838;DHT22;27511;52.042;5.178;2023-04-24T04:36:28;12.80;99.90
41838;DHT22;27511;52.042;5.178;2023-04-24T04:38:54;12.90;99.90
41838;DHT22;27511;52.042;5.178;2023-04-24T04:41:20;12.80;99.90
41838;DHT22;27511;52.042;5.178;2023-04-24T04:43:45;12.70;99.90
41838;DHT22;27511;52.042;5.178;2023-04-24T04:46:11;12.60;99.90
41838;DHT22;27511;52.042;5.178;2023-04-24T04:48:37;12.50;99.90
41838;DHT22;27511;52.042;5.178;2023-04-24T04:51:03;12.40;99.90
41838;DHT22;27511;52.042;5.178;2023-04-24T04:53:28;12.30;99.90
41838;DHT22;27511;52.042;5.178;2023-04-24T04:55:54;12.30;99.90
41838;DHT22;27511;52.042;5.178;2023-04-24T04:58:19;12.50;99.90
41838;DHT22;27511;52.042;5.178;2023-04-24T05:00:45;12.60;99.90
41838;DHT22;27511;52.042;5.178;2023-04-24T05:03:11;12.80;99.90
41838;DHT22;27511;52.042;5.178;2023-04-24T05:05:36;12.80;99.90
41838;DHT22;27511;52.042;5.178;2023-04-24T05:08:06;12.80;99.90
41838;DHT22;27511;52.042;5.178;2023-04-24T05:10:32;12.70;99.90
41838;DHT22;27511;52.042;5.178;2023-04-24T05:12:57;12.60;99.90
41838;DHT22;27511;52.042;5.178;2023-04-24T05:15:23;12.40;99.90
41838;DHT22;27511;52.042;5.178;2023-04-24T05:17:48;12.30;99.90
41838;DHT22;27511;52.042;5.178;2023-04-24T05:20:14;12.10;99.90
41838;DHT22;27511;52.042;5.178;2023-04-24T05:22:40;12.00;99.90
41838;DHT22;27511;52.042;5.178;2023-04-24T05:25:05;11.70;99.90
41838;DHT22;27511;52.042;5.178;2023-04-24T05:27:31;11.60;99.90
41838;DHT22;27511;52.042;5.178;2023-04-24T05:29:56;11.50;99.90
41838;DHT22;27511;52.042;5.178;2023-04-24T05:32:21;11.40;99.90
41838;DHT22;27511;52.042;5.178;2023-04-24T05:34:47;11.60;99.90
41838;DHT22;27511;52.042;5.178;2023-04-24T05:37:12;11.60;99.90
41838;DHT22;27511;52.042;5.178;2023-04-24T05:39:38;11.80;99.90
41838;DHT22;27511;52.042;5.178;2023-04-24T05:42:03;11.70;99.90
41838;DHT22;27511;52.042;5.178;2023-04-24T05:44:30;11.70;99.90
41838;DHT22;27511;52.042;5.178;2023-04-24T05:46:55;11.70;99.90
41838;DHT22;27511;52.042;5.178;2023-04-24T05:49:21;11.80;99.90
41838;DHT22;27511;52.042;5.178;2023-04-24T05:51:46;11.90;99.90
41838;DHT22;27511;52.042;5.178;2023-04-24T05:54:12;12.00;99.90
41838;DHT22;27511;52.042;5.178;2023-04-24T05:56:37;12.10;99.90
41838;DHT22;27511;52.042;5.178;2023-04-24T05:59:03;12.20;99.90
41838;DHT22;27511;52.042;5.178;2023-04-24T06:01:28;12.30;99.90
41838;DHT22;27511;52.042;5.178;2023-04-24T06:03:54;12.10;99.90
41838;DHT22;27511;52.042;5.178;2023-04-24T06:06:20;12.00;99.90
41838;DHT22;27511;52.042;5.178;2023-04-24T06:08:46;12.00;99.90
41838;DHT22;27511;52.042;5.178;2023-04-24T06:11:11;12.10;99.90
41838;DHT22;27511;52.042;5.178;2023-04-24T06:13:36;12.20;99.90
41838;DHT22;27511;52.042;5.178;2023-04-24T06:16:02;12.00;99.90
41838;DHT22;27511;52.042;5.178;2023-04-24T06:18:27;12.00;99.90
41838;DHT22;27511;52.042;5.178;2023-04-24T06:20:53;12.00;99.90
41838;DHT22;27511;52.042;5.178;2023-04-24T06:23:20;11.70;99.90
41838;DHT22;27511;52.042;5.178;2023-04-24T06:25:45;11.40;99.90
41838;DHT22;27511;52.042;5.178;2023-04-24T06:28:12;11.10;99.90
41838;DHT22;27511;52.042;5.178;2023-04-24T06:30:37;10.90;99.90
41838;DHT22;27511;52.042;5.178;2023-04-24T06:33:03;10.90;99.90
41838;DHT22;27511;52.042;5.178;2023-04-24T06:35:28;10.90;99.90
41838;DHT22;27511;52.042;5.178;2023-04-24T06:37:54;10.90;99.90
41838;DHT22;27511;52.042;5.178;2023-04-24T06:40:21;11.00;99.90
41838;DHT22;27511;52.042;5.178;2023-04-24T06:42:47;11.00;99.90
41838;DHT22;27511;52.042;5.178;2023-04-24T06:45:12;10.80;99.90
41838;DHT22;27511;52.042;5.178;2023-04-24T06:47:38;10.80;99.90
41838;DHT22;27511;52.042;5.178;2023-04-24T06:50:03;10.70;99.90
41838;DHT22;27511;52.042;5.178;2023-04-24T06:52:29;10.70;99.90
41838;DHT22;27511;52.042;5.178;2023-04-24T06:55:01;10.50;99.90
41838;DHT22;27511;52.042;5.178;2023-04-24T06:57:27;10.60;99.90
41838;DHT22;27511;52.042;5.178;2023-04-24T06:59:53;10.60;99.90
41838;DHT22;27511;52.042;5.178;2023-04-24T07:02:18;10.50;99.90
41838;DHT22;27511;52.042;5.178;2023-04-24T07:04:44;10.50;99.90
41838;DHT22;27511;52.042;5.178;2023-04-24T07:07:11;10.60;99.90
41838;DHT22;27511;52.042;5.178;2023-04-24T07:09:38;10.60;99.90
41838;DHT22;27511;52.042;5.178;2023-04-24T07:12:06;10.70;99.90
41838;DHT22;27511;52.042;5.178;2023-04-24T07:14:33;10.60;99.90
41838;DHT22;27511;52.042;5.178;2023-04-24T07:16:58;10.60;99.90
41838;DHT22;27511;52.042;5.178;2023-04-24T07:19:23;10.70;99.90
41838;DHT22;27511;52.042;5.178;2023-04-24T07:21:49;10.60;99.90
41838;DHT22;27511;52.042;5.178;2023-04-24T07:24:15;10.40;99.90
41838;DHT22;27511;52.042;5.178;2023-04-24T07:26:40;10.30;99.90
41838;DHT22;27511;52.042;5.178;2023-04-24T07:29:06;10.50;99.90
41838;DHT22;27511;52.042;5.178;2023-04-24T07:31:32;10.40;99.90
41838;DHT22;27511;52.042;5.178;2023-04-24T07:33:58;10.50;99.90
41838;DHT22;27511;52.042;5.178;2023-04-24T07:36:23;10.60;99.90
41838;DHT22;27511;52.042;5.178;2023-04-24T07:38:49;10.50;99.90
41838;DHT22;27511;52.042;5.178;2023-04-24T07:41:15;10.30;99.90
41838;DHT22;27511;52.042;5.178;2023-04-24T07:43:41;10.30;99.90
41838;DHT22;27511;52.042;5.178;2023-04-24T07:46:07;10.40;99.90
41838;DHT22;27511;52.042;5.178;2023-04-24T07:48:32;10.50;99.90
41838;DHT22;27511;52.042;5.178;2023-04-24T07:50:58;10.60;99.90
41838;DHT22;27511;52.042;5.178;2023-04-24T07:53:23;10.70;99.90
41838;DHT22;27511;52.042;5.178;2023-04-24T07:55:49;10.70;99.90
41838;DHT22;27511;52.042;5.178;2023-04-24T07:58:14;10.80;99.90
41838;DHT22;27511;52.042;5.178;2023-04-24T08:00:40;10.80;99.90
41838;DHT22;27511;52.042;5.178;2023-04-24T08:03:05;10.70;99.90
41838;DHT22;27511;52.042;5.178;2023-04-24T08:05:31;10.60;99.90
41838;DHT22;27511;52.042;5.178;2023-04-24T08:07:56;10.50;99.90
41838;DHT22;27511;52.042;5.178;2023-04-24T08:10:22;10.50;99.90
41838;DHT22;27511;52.042;5.178;2023-04-24T08:12:48;10.50;99.90
41838;DHT22;27511;52.042;5.178;2023-04-24T08:15:14;10.40;99.90
41838;DHT22;27511;52.042;5.178;2023-04-24T08:17:39;10.30;99.90
41838;DHT22;27511;52.042;5.178;2023-04-24T08:20:05;10.30;99.90
41838;DHT22;27511;52.042;5.178;2023-04-24T08:22:31;10.20;99.90
41838;DHT22;27511;52.042;5.178;2023-04-24T08:24:57;10.30;99.90
41838;DHT22;27511;52.042;5.178;2023-04-24T08:27:23;10.50;99.90
41838;DHT22;27511;52.042;5.178;2023-04-24T08:29:48;10.60;99.90
41838;DHT22;27511;52.042;5.178;2023-04-24T08:32:14;10.70;99.90
41838;DHT22;27511;52.042;5.178;2023-04-24T08:34:39;10.60;99.90
41838;DHT22;27511;52.042;5.178;2023-04-24T08:37:05;10.60;99.90
41838;DHT22;27511;52.042;5.178;2023-04-24T08:39:30;10.50;99.90
41838;DHT22;27511;52.042;5.178;2023-04-24T08:41:56;10.50;99.90
41838;DHT22;27511;52.042;5.178;2023-04-24T08:44:21;10.50;99.90
41838;DHT22;27511;52.042;5.178;2023-04-24T08:46:47;10.50;99.90
41838;DHT22;27511;52.042;5.178;2023-04-24T08:49:14;10.60;99.90
41838;DHT22;27511;52.042;5.178;2023-04-24T08:51:41;10.60;99.90
41838;DHT22;27511;52.042;5.178;2023-04-24T08:54:07;10.70;99.90
41838;DHT22;27511;52.042;5.178;2023-04-24T08:56:33;10.70;99.90
41838;DHT22;27511;52.042;5.178;2023-04-24T08:58:59;10.50;99.90
41838;DHT22;27511;52.042;5.178;2023-04-24T09:01:24;10.50;99.90
41838;DHT22;27511;52.042;5.178;2023-04-24T09:03:50;10.90;99.90
41838;DHT22;27511;52.042;5.178;2023-04-24T09:06:17;10.60;99.90
41838;DHT22;27511;52.042;5.178;2023-04-24T09:08:43;10.60;99.90
41838;DHT22;27511;52.042;5.178;2023-04-24T09:11:10;10.60;99.90
41838;DHT22;27511;52.042;5.178;2023-04-24T09:13:36;10.60;99.90
41838;DHT22;27511;52.042;5.178;2023-04-24T09:16:02;10.70;99.90
41838;DHT22;27511;52.042;5.178;2023-04-24T09:18:27;10.70;99.90
41838;DHT22;27511;52.042;5.178;2023-04-24T09:21:08;10.70;99.90
41838;DHT22;27511;52.042;5.178;2023-04-24T09:23:34;10.70;99.90
41838;DHT22;27511;52.042;5.178;2023-04-24T09:26:00;10.80;99.90
41838;DHT22;27511;52.042;5.178;2023-04-24T09:28:30;11.00;99.90
41838;DHT22;27511;52.042;5.178;2023-04-24T09:33:54;11.20;99.90
41838;DHT22;27511;52.042;5.178;2023-04-24T09:36:26;11.10;99.90
41838;DHT22;27511;52.042;5.178;2023-04-24T09:38:53;11.10;99.90
41838;DHT22;27511;52.042;5.178;2023-04-24T09:41:19;11.10;99.90
41838;DHT22;27511;52.042;5.178;2023-04-24T09:43:45;11.30;99.90
41838;DHT22;27511;52.042;5.178;2023-04-24T09:46:10;11.50;99.90
41838;DHT22;27511;52.042;5.178;2023-04-24T09:48:37;11.60;99.90
41838;DHT22;27511;52.042;5.178;2023-04-24T09:51:04;11.40;99.90
41838;DHT22;27511;52.042;5.178;2023-04-24T09:53:32;11.30;99.90
41838;DHT22;27511;52.042;5.178;2023-04-24T09:56:07;11.10;99.90
41838;DHT22;27511;52.042;5.178;2023-04-24T09:58:34;11.00;99.90
41838;DHT22;27511;52.042;5.178;2023-04-24T10:01:00;11.10;99.90
41838;DHT22;27511;52.042;5.178;2023-04-24T10:03:26;11.10;99.90
41838;DHT22;27511;52.042;5.178;2023-04-24T10:05:54;11.00;99.90
41838;DHT22;27511;52.042;5.178;2023-04-24T10:08:23;11.00;99.90
41838;DHT22;27511;52.042;5.178;2023-04-24T10:10:48;10.80;99.90
41838;DHT22;27511;52.042;5.178;2023-04-24T10:13:14;10.70;99.90
41838;DHT22;27511;52.042;5.178;2023-04-24T10:15:41;10.60;99.90
41838;DHT22;27511;52.042;5.178;2023-04-24T10:18:07;10.50;99.90
41838;DHT22;27511;52.042;5.178;2023-04-24T10:20:34;10.30;99.90
41838;DHT22;27511;52.042;5.178;2023-04-24T10:23:00;10.20;99.90
41838;DHT22;27511;52.042;5.178;2023-04-24T10:25:26;10.40;99.90
41838;DHT22;27511;52.042;5.178;2023-04-24T10:27:53;10.40;99.90
41838;DHT22;27511;52.042;5.178;2023-04-24T10:30:22;10.40;99.90
41838;DHT22;27511;52.042;5.178;2023-04-24T10:32:48;10.50;99.90
41838;DHT22;27511;52.042;5.178;2023-04-24T10:35:14;10.60;99.90
41838;DHT22;27511;52.042;5.178;2023-04-24T10:37:45;10.70;99.90
41838;DHT22;27511;52.042;5.178;2023-04-24T10:40:11;10.70;99.90
41838;DHT22;27511;52.042;5.178;2023-04-24T10:42:40;10.60;99.90
41838;DHT22;27511;52.042;5.178;2023-04-24T10:45:21;10.50;99.90
41838;DHT22;27511;52.042;5.178;2023-04-24T10:48:01;10.50;99.90
41838;DHT22;27511;52.042;5.178;2023-04-24T10:50:27;10.60;99.90
41838;DHT22;27511;52.042;5.178;2023-04-24T10:52:53;10.90;99.90
41838;DHT22;27511;52.042;5.178;2023-04-24T10:55:40;11.00;99.90
41838;DHT22;27511;52.042;5.178;2023-04-24T10:58:05;11.20;99.90
41838;DHT22;27511;52.042;5.178;2023-04-24T11:00:31;11.30;99.90
41838;DHT22;27511;52.042;5.178;2023-04-24T11:02:56;11.30;99.90
41838;DHT22;27511;52.042;5.178;2023-04-24T11:05:24;11.40;99.90
41838;DHT22;27511;52.042;5.178;2023-04-24T11:08:15;11.60;99.90
41838;DHT22;27511;52.042;5.178;2023-04-24T11:10:54;11.60;99.90
41838;DHT22;27511;52.042;5.178;2023-04-24T11:13:21;11.60;99.90
41838;DHT22;27511;52.042;5.178;2023-04-24T11:16:06;11.50;99.90
41838;DHT22;27511;52.042;5.178;2023-04-24T11:18:39;11.50;99.90
41838;DHT22;27511;52.042;5.178;2023-04-24T11:21:11;11.60;99.90
41838;DHT22;27511;52.042;5.178;2023-04-24T11:23:39;11.40;99.90
41838;DHT22;27511;52.042;5.178;2023-04-24T11:26:11;11.20;99.90
41838;DHT22;27511;52.042;5.178;2023-04-24T11:28:37;11.30;99.90
41838;DHT22;27511;52.042;5.178;2023-04-24T11:33:53;10.90;99.90
41838;DHT22;27511;52.042;5.178;2023-04-24T11:36:19;10.70;99.90
41838;DHT22;27511;52.042;5.178;2023-04-24T11:38:44;10.70;99.90
41838;DHT22;27511;52.042;5.178;2023-04-24T11:41:10;10.60;99.90
41838;DHT22;27511;52.042;5.178;2023-04-24T11:43:36;10.70;99.90
41838;DHT22;27511;52.042;5.178;2023-04-24T11:46:02;10.60;99.90
41838;DHT22;27511;52.042;5.178;2023-04-24T11:48:27;10.70;99.90
41838;DHT22;27511;52.042;5.178;2023-04-24T11:50:53;10.70;99.90
41838;DHT22;27511;52.042;5.178;2023-04-24T11:53:19;10.90;99.90
41838;DHT22;27511;52.042;5.178;2023-04-24T11:55:45;11.00;99.90
41838;DHT22;27511;52.042;5.178;2023-04-24T11:58:11;10.90;99.90
41838;DHT22;27511;52.042;5.178;2023-04-24T12:00:36;11.10;99.90
41838;DHT22;27511;52.042;5.178;2023-04-24T12:03:09;11.10;99.90
41838;DHT22;27511;52.042;5.178;2023-04-24T12:05:36;11.20;99.90
41838;DHT22;27511;52.042;5.178;2023-04-24T12:08:02;11.30;99.90
41838;DHT22;27511;52.042;5.178;2023-04-24T12:10:28;11.40;99.90
41838;DHT22;27511;52.042;5.178;2023-04-24T12:12:55;11.40;99.90
41838;DHT22;27511;52.042;5.178;2023-04-24T12:15:22;11.50;99.90
41838;DHT22;27511;52.042;5.178;2023-04-24T12:17:48;11.70;99.90
41838;DHT22;27511;52.042;5.178;2023-04-24T12:20:15;11.80;99.90
41838;DHT22;27511;52.042;5.178;2023-04-24T12:22:47;11.90;99.90
41838;DHT22;27511;52.042;5.178;2023-04-24T12:25:14;11.80;99.90
41838;DHT22;27511;52.042;5.178;2023-04-24T12:27:40;11.70;99.90
41838;DHT22;27511;52.042;5.178;2023-04-24T12:30:05;11.60;99.90
41838;DHT22;27511;52.042;5.178;2023-04-24T12:32:34;11.70;99.90
41838;DHT22;27511;52.042;5.178;2023-04-24T12:35:00;11.60;99.90
41838;DHT22;27511;52.042;5.178;2023-04-24T12:37:26;11.80;99.90
41838;DHT22;27511;52.042;5.178;2023-04-24T12:42:47;11.60;99.90
41838;DHT22;27511;52.042;5.178;2023-04-24T12:45:14;11.60;99.90
41838;DHT22;27511;52.042;5.178;2023-04-24T12:47:40;11.70;99.90
41838;DHT22;27511;52.042;5.178;2023-04-24T12:50:09;11.90;99.90
41838;DHT22;27511;52.042;5.178;2023-04-24T12:52:35;11.90;99.90
41838;DHT22;27511;52.042;5.178;2023-04-24T12:55:01;11.90;99.90
41838;DHT22;27511;52.042;5.178;2023-04-24T12:57:28;12.00;99.90
41838;DHT22;27511;52.042;5.178;2023-04-24T12:59:57;12.10;99.90
41838;DHT22;27511;52.042;5.178;2023-04-24T13:02:23;11.90;99.90
41838;DHT22;27511;52.042;5.178;2023-04-24T13:04:49;11.50;99.90
41838;DHT22;27511;52.042;5.178;2023-04-24T13:07:15;11.20;99.90
41838;DHT22;27511;52.042;5.178;2023-04-24T13:09:41;11.10;99.90
41838;DHT22;27511;52.042;5.178;2023-04-24T13:12:06;11.40;99.90
41838;DHT22;27511;52.042;5.178;2023-04-24T13:14:32;11.50;99.90
41838;DHT22;27511;52.042;5.178;2023-04-24T13:16:58;11.70;99.90
41838;DHT22;27511;52.042;5.178;2023-04-24T13:19:27;11.80;99.90
41838;DHT22;27511;52.042;5.178;2023-04-24T13:21:53;12.00;99.90
41838;DHT22;27511;52.042;5.178;2023-04-24T13:24:20;12.20;99.90
41838;DHT22;27511;52.042;5.178;2023-04-24T13:26:46;12.30;99.90
41838;DHT22;27511;52.042;5.178;2023-04-24T13:29:11;12.20;99.90
41838;DHT22;27511;52.042;5.178;2023-04-24T13:31:36;11.80;99.90
41838;DHT22;27511;52.042;5.178;2023-04-24T13:34:02;11.70;99.90
41838;DHT22;27511;52.042;5.178;2023-04-24T13:36:28;11.90;99.90
41838;DHT22;27511;52.042;5.178;2023-04-24T13:38:54;12.30;99.90
41838;DHT22;27511;52.042;5.178;2023-04-24T13:41:19;12.50;99.90
41838;DHT22;27511;52.042;5.178;2023-04-24T13:43:45;12.30;99.90
41838;DHT22;27511;52.042;5.178;2023-04-24T13:46:10;12.00;99.90
41838;DHT22;27511;52.042;5.178;2023-04-24T13:48:36;12.10;99.90
41838;DHT22;27511;52.042;5.178;2023-04-24T13:51:01;12.20;99.90
41838;DHT22;27511;52.042;5.178;2023-04-24T13:53:27;12.20;99.90
41838;DHT22;27511;52.042;5.178;2023-04-24T13:55:53;12.20;99.90
41838;DHT22;27511;52.042;5.178;2023-04-24T13:58:18;12.20;99.90
41838;DHT22;27511;52.042;5.178;2023-04-24T14:00:44;12.30;99.90
41838;DHT22;27511;52.042;5.178;2023-04-24T14:03:09;12.50;99.90
41838;DHT22;27511;52.042;5.178;2023-04-24T14:05:36;12.50;99.90
41838;DHT22;27511;52.042;5.178;2023-04-24T14:08:01;12.50;99.90
41838;DHT22;27511;52.042;5.178;2023-04-24T14:10:27;12.50;99.90
41838;DHT22;27511;52.042;5.178;2023-04-24T14:12:52;12.50;99.90
41838;DHT22;27511;52.042;5.178;2023-04-24T14:15:18;12.60;99.90
41838;DHT22;27511;52.042;5.178;2023-04-24T14:17:44;12.50;99.90
41838;DHT22;27511;52.042;5.178;2023-04-24T14:20:09;12.30;99.90
41838;DHT22;27511;52.042;5.178;2023-04-24T14:22:35;12.20;99.90
41838;DHT22;27511;52.042;5.178;2023-04-24T14:25:00;12.20;99.90
41838;DHT22;27511;52.042;5.178;2023-04-24T14:27:26;12.10;99.90
41838;DHT22;27511;52.042;5.178;2023-04-24T14:29:51;12.10;99.90
41838;DHT22;27511;52.042;5.178;2023-04-24T14:32:17;12.20;99.90
41838;DHT22;27511;52.042;5.178;2023-04-24T14:34:42;12.00;99.90
41838;DHT22;27511;52.042;5.178;2023-04-24T14:37:08;12.10;99.90
41838;DHT22;27511;52.042;5.178;2023-04-24T14:39:33;12.30;99.90
41838;DHT22;27511;52.042;5.178;2023-04-24T14:41:59;12.30;99.90
41838;DHT22;27511;52.042;5.178;2023-04-24T14:44:25;12.20;99.90
41838;DHT22;27511;52.042;5.178;2023-04-24T14:46:51;11.80;99.90
41838;DHT22;27511;52.042;5.178;2023-04-24T14:49:16;11.60;99.90
41838;DHT22;27511;52.042;5.178;2023-04-24T14:51:42;11.40;99.90
41838;DHT22;27511;52.042;5.178;2023-04-24T14:54:08;11.20;99.90
41838;DHT22;27511;52.042;5.178;2023-04-24T14:56:34;11.40;99.90
41838;DHT22;27511;52.042;5.178;2023-04-24T14:58:59;11.70;99.90
41838;DHT22;27511;52.042;5.178;2023-04-24T15:01:25;12.00;99.90
41838;DHT22;27511;52.042;5.178;2023-04-24T15:03:50;12.20;99.90
41838;DHT22;27511;52.042;5.178;2023-04-24T15:06:16;12.40;99.90
41838;DHT22;27511;52.042;5.178;2023-04-24T15:08:41;12.40;99.90
41838;DHT22;27511;52.042;5.178;2023-04-24T15:11:07;12.50;99.90
41838;DHT22;27511;52.042;5.178;2023-04-24T15:13:33;12.50;99.90
41838;DHT22;27511;52.042;5.178;2023-04-24T15:15:58;12.50;99.90
41838;DHT22;27511;52.042;5.178;2023-04-24T15:18:27;12.50;99.90
41838;DHT22;27511;52.042;5.178;2023-04-24T15:20:54;12.60;99.90
41838;DHT22;27511;52.042;5.178;2023-04-24T15:23:21;12.60;99.90
41838;DHT22;27511;52.042;5.178;2023-04-24T15:25:47;12.60;99.90
41838;DHT22;27511;52.042;5.178;2023-04-24T15:28:13;12.40;99.90
41838;DHT22;27511;52.042;5.178;2023-04-24T15:30:38;11.90;99.90
41838;DHT22;27511;52.042;5.178;2023-04-24T15:33:04;11.60;99.90
41838;DHT22;27511;52.042;5.178;2023-04-24T15:35:32;11.40;99.90